Portada
METAR-TAF:

METAR-TAF

Aeroports :

Mandalay, Myanmar

latitud: 21-59N, longitud: 096-06E, altitud: 74 m

Observació

L'informe es va fer fa 56 minuts, a les 12:30 UTC
Vent 2 kt del Nord/Nord-Est
Temperatura 30°C
Humitat 40%
Pressió 1005 hPa
Visibilitat: 6000 m
Núvols disperses a una alçada de 2000 ft
Escasses núvols a una alçada de 12000 ft
calitja

METAR: VYMD 071230Z 02002KT 6000 HZ SCT020 FEW120 30/15 Q1005

Hora: 19:56 (13:26 UTC)

Pronòstic

L'informe es va fer fa 2 hores i 26 minuts, a les 11:00 UTC
Pronòstic vàlid del 07 a les 12 UTC al 08 a les 12 UTC
Vent 5 kt del Nord
Visibilitat: 7000 m
Escasses núvols a una alçada de 2000 ft
Temporalment
l' 07 a les 12 UTC al 07 a les 18 UTC
Vent 10 kt del Nord-Oest
Visibilitat: 6000 m
Núvols disperses a una alçada de 2000 ft

TAF: VYMD 071100Z 0712/0812 35005KT 7000 FEW020 TEMPO 0712/0718 32010KT 6000 SCT020

Observacions i pronòstics meteorològics de més de 4000 aeroports (METAR i TAF).

Les estacions disponibles són els punts grocs i vermells al mapa.

Posi el ratolí al punt desitjat per veure el nom de l'estació.

Feu clic per veure les observacions i els pronòstics meteorològics.

Per canviar el mapa: feu clic els botons verds amb una creu de color negre per apropar; al botó verd amb un guió per allunyar la imatge; o en les fletxes verdes per a mapes adjacents.


METAR-TAF: